Time;durP1;ratioP1;P1;durP2;ratioP2;P2;SDS_P1;SDS_P2;PMS_P1;PMS_P2;Temp;Humidity;BMP_temperature;BMP_pressure;BME280_temperature;BME280_humidity;BME280_pressure;Samples;Min_cycle;Max_cycle;Signal;HPM_P1;HPM_P2
2023/11/14 00:00:26;;;;;;;1999.90;999.90;;;;;;;3.30;84.41;96523.38;5134606;27;20083;-65
2023/11/14 00:02:53;;;;;;;1999.90;999.90;;;;;;;3.23;85.18;96521.75;5134635;27;20477;-63
2023/11/14 00:05:20;;;;;;;1999.90;999.90;;;;;;;3.18;85.51;96520.91;5134446;27;20441;-62
2023/11/14 00:07:49;;;;;;;1999.90;999.90;;;;;;;3.15;85.80;96511.47;5134366;27;20049;-63
2023/11/14 00:10:16;;;;;;;1999.90;999.90;;;;;;;3.09;86.15;96511.50;5134378;27;20062;-64
2023/11/14 00:12:48;;;;;;;1999.90;999.90;;;;;;;3.14;86.25;96507.16;5134382;27;20047;-64
2023/11/14 00:15:18;;;;;;;1999.90;999.90;;;;;;;3.15;85.83;96504.56;5134027;27;20043;-63
2023/11/14 00:17:51;;;;;;;1999.90;999.90;;;;;;;3.10;86.32;96503.75;5134240;27;20047;-64
2023/11/14 00:20:18;;;;;;;1999.90;999.90;;;;;;;3.08;86.10;96505.50;5134064;27;20047;-64
2023/11/14 00:22:45;;;;;;;1999.90;999.90;;;;;;;3.08;86.57;96510.66;5134161;27;20515;-62
2023/11/14 00:25:12;;;;;;;1999.90;999.90;;;;;;;3.11;86.64;96518.41;5134171;27;20507;-64
2023/11/14 00:27:40;;;;;;;1999.90;999.90;;;;;;;3.15;86.51;96516.63;5134141;27;20046;-63
2023/11/14 00:30:09;;;;;;;1999.90;999.90;;;;;;;3.18;87.23;96513.16;5134086;27;20043;-62
2023/11/14 00:32:36;;;;;;;1999.90;999.90;;;;;;;3.18;87.15;96521.78;5134101;27;20044;-63
2023/11/14 00:35:06;;;;;;;1999.90;999.90;;;;;;;3.21;86.48;96526.06;5133901;27;20134;-62
2023/11/14 00:37:33;;;;;;;1999.90;999.90;;;;;;;3.18;86.51;96520.91;5133928;28;20054;-64
2023/11/14 00:40:00;;;;;;;1999.90;999.90;;;;;;;3.15;86.51;96522.66;5133869;28;20047;-62
2023/11/14 00:42:27;;;;;;;1999.90;999.90;;;;;;;3.12;86.46;96512.34;5133990;28;20168;-64
2023/11/14 00:44:54;;;;;;;1999.90;999.90;;;;;;;3.14;86.61;96510.63;5133925;27;20078;-63
2023/11/14 00:47:21;;;;;;;1999.90;999.90;;;;;;;3.20;86.53;96511.41;5133811;28;20043;-63
2023/11/14 00:49:48;;;;;;;1999.90;999.90;;;;;;;3.16;86.62;96513.16;5133817;28;20086;-63
2023/11/14 00:52:18;;;;;;;1999.90;999.90;;;;;;;3.12;86.48;96521.81;5133946;27;20441;-63
2023/11/14 00:54:45;;;;;;;1999.90;999.90;;;;;;;3.18;85.82;96510.56;5133873;28;20047;-63
2023/11/14 00:57:13;;;;;;;1999.90;999.90;;;;;;;3.14;85.84;96520.09;5133787;28;20493;-61
2023/11/14 00:59:40;;;;;;;1999.90;999.90;;;;;;;3.13;85.90;96516.63;5133728;28;20050;-64
2023/11/14 01:02:08;;;;;;;1999.90;999.90;;;;;;;3.18;85.26;96513.16;5133721;28;20075;-62
2023/11/14 01:04:37;;;;;;;1999.90;999.90;;;;;;;3.12;85.42;96508.91;5133756;27;20066;-63
2023/11/14 01:07:05;;;;;;;1999.90;999.90;;;;;;;3.11;85.67;96518.41;5133832;27;20051;-64
2023/11/14 01:09:34;;;;;;;1999.90;999.90;;;;;;;3.08;86.30;96509.81;5133841;27;20046;-62
2023/11/14 01:12:01;;;;;;;1999.90;999.90;;;;;;;3.11;86.31;96510.66;5133915;28;20099;-63
2023/11/14 01:14:28;;;;;;;1999.90;999.90;;;;;;;3.06;85.66;96511.53;5133730;28;20050;-63
2023/11/14 01:16:55;;;;;;;1999.90;999.90;;;;;;;3.00;86.24;96510.72;5134868;27;20054;-62
2023/11/14 01:19:23;;;;;;;1999.90;999.90;;;;;;;3.03;86.08;96504.66;5137641;27;20047;-63
2023/11/14 01:21:50;;;;;;;1999.90;999.90;;;;;;;3.03;86.21;96497.78;5137637;27;20045;-64
2023/11/14 01:24:17;;;;;;;1999.90;999.90;;;;;;;3.01;85.93;96503.84;5137575;27;20122;-63
2023/11/14 01:26:46;;;;;;;1999.90;999.90;;;;;;;2.96;86.10;96506.47;5137498;27;20047;-61
2023/11/14 01:29:13;;;;;;;1999.90;999.90;;;;;;;2.90;86.14;96498.75;5137539;27;20047;-62
2023/11/14 01:31:40;;;;;;;1999.90;999.90;;;;;;;2.86;86.78;96505.66;5137346;27;20504;-64
2023/11/14 01:34:07;;;;;;;1999.90;999.90;;;;;;;2.89;86.56;96505.63;5137337;27;20047;-63
2023/11/14 01:36:36;;;;;;;1999.90;999.90;;;;;;;2.86;86.45;96510.81;5137330;27;20495;-64
2023/11/14 01:39:03;;;;;;;1999.90;999.90;;;;;;;2.78;86.50;96510.91;5137274;27;20400;-63
2023/11/14 01:41:30;;;;;;;1999.90;999.90;;;;;;;2.71;87.35;96508.38;5137256;27;20054;-62
2023/11/14 01:43:59;;;;;;;1999.90;999.90;;;;;;;2.80;87.81;96499.69;5137085;27;20047;-63
2023/11/14 01:46:26;;;;;;;1999.90;999.90;;;;;;;2.82;87.69;96503.09;5137082;27;20039;-63
2023/11/14 01:48:54;;;;;;;1999.90;999.90;;;;;;;2.77;87.87;96501.41;5137142;27;20535;-62
2023/11/14 01:51:24;;;;;;;1999.90;999.90;;;;;;;2.74;88.01;96488.53;5137101;27;20081;-62
2023/11/14 01:53:54;;;;;;;1999.90;999.90;;;;;;;2.78;87.60;96494.53;5137036;27;20043;-64
2023/11/14 01:56:22;;;;;;;1999.90;999.90;;;;;;;2.74;87.73;96496.28;5136989;27;20055;-62
2023/11/14 01:58:51;;;;;;;1999.90;999.90;;;;;;;2.73;87.70;96497.16;5137027;27;20043;-64
2023/11/14 02:01:20;;;;;;;1999.90;999.90;;;;;;;2.69;87.65;96498.06;5136942;27;20118;-65
2023/11/14 02:03:47;;;;;;;1999.90;999.90;;;;;;;2.67;86.79;96494.63;5136895;27;20043;-64
2023/11/14 02:06:14;;;;;;;1999.90;999.90;;;;;;;2.59;86.88;96476.59;5136816;27;20047;-65
2023/11/14 02:08:42;;;;;;;1999.90;999.90;;;;;;;2.64;87.03;96474.84;5136949;27;20096;-63
2023/11/14 02:11:09;;;;;;;1999.90;999.90;;;;;;;2.65;87.29;96468.78;5136771;27;20137;-63
2023/11/14 02:13:36;;;;;;;1999.90;999.90;;;;;;;2.69;87.98;96466.19;5136620;27;20447;-64
2023/11/14 02:16:04;;;;;;;1999.90;999.90;;;;;;;2.64;88.86;96461.06;5136627;27;20043;-64
2023/11/14 02:18:33;;;;;;;1999.90;999.90;;;;;;;2.64;89.85;96461.91;5136576;27;20493;-64
2023/11/14 02:21:00;;;;;;;1999.90;999.90;;;;;;;2.64;89.60;96461.06;5136378;27;20082;-65
2023/11/14 02:23:30;;;;;;;1999.90;999.90;;;;;;;2.67;89.23;96461.03;5136428;27;20070;-65
2023/11/14 02:25:59;;;;;;;1999.90;999.90;;;;;;;2.70;90.21;96465.31;5136408;27;20078;-64
2023/11/14 02:28:26;;;;;;;1999.90;999.90;;;;;;;2.71;90.92;96467.88;5135963;27;20083;-64
2023/11/14 02:30:54;;;;;;;1999.90;999.90;;;;;;;2.75;90.65;96464.44;5136435;27;20077;-65
2023/11/14 02:33:21;;;;;;;1999.90;999.90;;;;;;;2.73;90.21;96471.31;5136178;27;20135;-64
2023/11/14 02:35:48;;;;;;;1999.90;999.90;;;;;;;2.69;90.28;96464.47;5136108;27;20454;-63
2023/11/14 02:38:15;;;;;;;1999.90;999.90;;;;;;;2.70;90.66;96463.59;5136123;27;20049;-65
2023/11/14 02:40:47;;;;;;;1999.90;999.90;;;;;;;2.70;90.47;96473.94;5135974;27;20108;-63
2023/11/14 02:43:16;;;;;;;1999.90;999.90;;;;;;;2.68;90.52;96474.81;5136095;27;20094;-63
2023/11/14 02:45:43;;;;;;;1999.90;999.90;;;;;;;2.71;90.78;96467.03;5136164;27;20135;-65
2023/11/14 02:48:10;;;;;;;1999.90;999.90;;;;;;;2.77;90.80;96461.84;5135955;27;20122;-64
2023/11/14 02:50:50;;;;;;;1999.90;999.90;;;;;;;2.77;90.25;96462.66;5135994;27;20081;-64
2023/11/14 02:53:17;;;;;;;1999.90;999.90;;;;;;;2.81;91.38;96465.22;5135869;27;20492;-65
2023/11/14 02:55:45;;;;;;;1999.90;999.90;;;;;;;2.75;91.25;96481.66;5135708;27;20074;-63
2023/11/14 02:58:12;;;;;;;1999.90;999.90;;;;;;;2.81;90.99;96479.03;5135802;27;20109;-63
2023/11/14 03:00:42;;;;;;;1999.90;999.90;;;;;;;2.85;90.35;96467.78;5135750;27;20126;-64
2023/11/14 03:03:10;;;;;;;1999.90;999.90;;;;;;;2.93;89.67;96472.88;5135927;27;20047;-64
2023/11/14 03:05:37;;;;;;;1999.90;999.90;;;;;;;2.96;89.60;96472.00;5135632;27;20046;-63
2023/11/14 03:08:05;;;;;;;1999.90;999.90;;;;;;;2.98;89.41;96471.09;5135627;27;20078;-65
2023/11/14 03:10:32;;;;;;;1999.90;999.90;;;;;;;3.00;89.33;96471.97;5135522;27;20043;-65
2023/11/14 03:12:59;;;;;;;1999.90;999.90;;;;;;;2.97;89.06;96468.53;5135379;27;20404;-64
2023/11/14 03:15:27;;;;;;;1999.90;999.90;;;;;;;3.00;88.74;96471.97;5135451;27;20051;-63
2023/11/14 03:17:57;;;;;;;1999.90;999.90;;;;;;;2.95;88.83;96470.28;5135474;27;20047;-64
2023/11/14 03:20:24;;;;;;;1999.90;999.90;;;;;;;2.94;88.64;96474.59;5135279;27;20504;-64
2023/11/14 03:22:51;;;;;;;1999.90;999.90;;;;;;;2.97;88.47;96477.16;5135410;27;20043;-63
2023/11/14 03:25:18;;;;;;;1999.90;999.90;;;;;;;3.00;88.24;96477.13;5135091;27;20549;-63
2023/11/14 03:27:46;;;;;;;1999.90;999.90;;;;;;;2.98;87.81;96484.03;5135221;27;20043;-63
2023/11/14 03:30:13;;;;;;;1999.90;999.90;;;;;;;2.92;87.99;96483.25;5135189;27;20051;-63
2023/11/14 03:32:41;;;;;;;1999.90;999.90;;;;;;;2.94;88.47;96492.69;5135101;27;20043;-63
2023/11/14 03:35:10;;;;;;;1999.90;999.90;;;;;;;2.96;88.65;96495.25;5134782;27;20047;-64
2023/11/14 03:37:38;;;;;;;1999.90;999.90;;;;;;;2.87;88.31;96489.31;5135145;27;20727;-62
2023/11/14 03:40:06;;;;;;;1999.90;999.90;;;;;;;2.92;88.44;96494.41;5134157;27;20051;-65
2023/11/14 03:42:35;;;;;;;1999.90;999.90;;;;;;;2.91;88.55;96500.47;5134884;27;20047;-64
2023/11/14 03:45:03;;;;;;;1999.90;999.90;;;;;;;2.95;88.79;96498.72;5134921;27;20122;-63
2023/11/14 03:47:30;;;;;;;1999.90;999.90;;;;;;;2.97;89.09;96492.66;5134777;27;20039;-65
2023/11/14 03:49:57;;;;;;;1999.90;999.90;;;;;;;3.00;88.99;96502.09;5134787;27;20394;-63
2023/11/14 03:52:26;;;;;;;1999.90;999.90;;;;;;;2.98;88.49;96498.69;5134850;27;20075;-63
2023/11/14 03:54:53;;;;;;;1999.90;999.90;;;;;;;2.97;88.79;96496.97;5134545;27;20122;-65
2023/11/14 03:57:21;;;;;;;1999.90;999.90;;;;;;;2.95;88.58;96496.97;5134579;27;20082;-62
2023/11/14 03:59:48;;;;;;;1999.90;999.90;;;;;;;2.99;88.09;96501.28;5134545;27;20130;-62
2023/11/14 04:02:15;;;;;;;1999.90;999.90;;;;;;;3.00;87.94;96504.69;5134559;27;20434;-63
2023/11/14 04:04:43;;;;;;;1999.90;999.90;;;;;;;2.96;88.35;96500.44;5134511;27;20047;-63
2023/11/14 04:07:10;;;;;;;1999.90;999.90;;;;;;;2.92;87.60;96497.00;5134503;27;20039;-64
2023/11/14 04:09:41;;;;;;;1999.90;999.90;;;;;;;2.89;87.89;96502.22;5134423;27;20424;-63
2023/11/14 04:12:09;;;;;;;1999.90;999.90;;;;;;;2.83;87.60;96503.09;5134441;27;20054;-64
2023/11/14 04:14:36;;;;;;;1999.90;999.90;;;;;;;2.82;87.90;96510.84;5134353;27;20095;-64
2023/11/14 04:17:04;;;;;;;1999.90;999.90;;;;;;;2.88;88.54;96509.09;5134238;27;20091;-62
2023/11/14 04:19:31;;;;;;;1999.90;999.90;;;;;;;2.88;88.06;96528.91;5134131;27;20047;-63
2023/11/14 04:21:59;;;;;;;1999.90;999.90;;;;;;;2.88;87.62;96531.50;5134153;27;20057;-65
2023/11/14 04:24:26;;;;;;;1999.90;999.90;;;;;;;2.87;87.59;96522.91;5134336;27;20047;-63
2023/11/14 04:26:59;;;;;;;1999.90;999.90;;;;;;;2.89;87.08;96522.88;5134110;27;20473;-63
2023/11/14 04:29:26;;;;;;;1999.90;999.90;;;;;;;2.83;86.62;96528.94;5134167;27;20050;-65
2023/11/14 04:31:53;;;;;;;1999.90;999.90;;;;;;;2.76;86.54;96530.72;5134112;27;20054;-63
2023/11/14 04:34:20;;;;;;;1999.90;999.90;;;;;;;2.74;86.38;96535.03;5133845;27;20043;-65
2023/11/14 04:36:47;;;;;;;1999.90;999.90;;;;;;;2.69;86.33;96533.34;5133991;27;20079;-64
2023/11/14 04:39:14;;;;;;;1999.90;999.90;;;;;;;2.59;86.41;96537.72;5134054;27;20417;-62
2023/11/14 04:41:42;;;;;;;1999.90;999.90;;;;;;;2.51;86.69;96523.16;5133967;27;20621;-63
2023/11/14 04:44:11;;;;;;;1999.90;999.90;;;;;;;2.43;87.37;96518.88;5133998;28;20147;-63
2023/11/14 04:46:42;;;;;;;1999.90;999.90;;;;;;;2.38;87.98;96519.75;5133993;27;20050;-63
2023/11/14 04:49:10;;;;;;;1999.90;999.90;;;;;;;2.34;87.96;96515.47;5133904;28;20489;-65
2023/11/14 04:51:37;;;;;;;1999.90;999.90;;;;;;;2.36;88.42;96518.94;5136617;27;20057;-63
2023/11/14 04:54:05;;;;;;;1999.90;999.90;;;;;;;2.33;88.19;96507.75;5138216;27;20411;-64
2023/11/14 04:56:34;;;;;;;1999.90;999.90;;;;;;;2.31;88.29;96512.06;5138206;27;20470;-63
2023/11/14 04:59:01;;;;;;;1999.90;999.90;;;;;;;2.32;88.24;96504.28;5138047;27;20043;-64
2023/11/14 05:01:30;;;;;;;1999.90;999.90;;;;;;;2.38;88.55;96499.09;5137991;27;20043;-62
2023/11/14 05:03:57;;;;;;;1999.90;999.90;;;;;;;2.39;88.82;96495.66;5138100;27;20102;-65
2023/11/14 05:06:25;;;;;;;1999.90;999.90;;;;;;;2.40;88.11;96496.50;5137974;27;20076;-64
2023/11/14 05:08:52;;;;;;;1999.90;999.90;;;;;;;2.32;88.55;96493.97;5137941;27;20047;-63
2023/11/14 05:11:20;;;;;;;1999.90;999.90;;;;;;;2.38;88.36;96501.69;5137926;27;20043;-66
2023/11/14 05:13:47;;;;;;;1999.90;999.90;;;;;;;2.43;88.29;96498.22;5137943;27;20047;-62
2023/11/14 05:16:15;;;;;;;1999.90;999.90;;;;;;;2.45;88.61;96492.19;5137690;27;20049;-64
2023/11/14 05:18:44;;;;;;;1999.90;999.90;;;;;;;2.47;88.62;96495.59;5137664;27;20050;-64
2023/11/14 05:21:12;;;;;;;1999.90;999.90;;;;;;;2.54;88.24;96480.94;5137625;27;20043;-64
2023/11/14 05:23:40;;;;;;;1999.90;999.90;;;;;;;2.49;88.30;96491.28;5137657;27;20051;-63
2023/11/14 05:26:08;;;;;;;1999.90;999.90;;;;;;;2.53;88.66;96494.72;5137726;27;20079;-62
2023/11/14 05:28:38;;;;;;;1999.90;999.90;;;;;;;2.58;88.12;96487.78;5137398;27;20054;-65
2023/11/14 05:31:05;;;;;;;1999.90;999.90;;;;;;;2.58;88.50;96490.38;5137477;27;20043;-64
2023/11/14 05:33:32;;;;;;;1999.90;999.90;;;;;;;2.64;88.62;96495.50;5137361;27;20051;-63
2023/11/14 05:36:01;;;;;;;1999.90;999.90;;;;;;;2.69;88.81;96497.19;5137278;27;20043;-64
2023/11/14 05:38:28;;;;;;;1999.90;999.90;;;;;;;2.71;88.59;96508.38;5137394;27;20047;-64
2023/11/14 05:40:56;;;;;;;1999.90;999.90;;;;;;;2.77;87.98;96510.91;5137384;27;20051;-64
2023/11/14 05:43:24;;;;;;;1999.90;999.90;;;;;;;2.81;88.85;96514.31;5137353;27;20130;-63
2023/11/14 05:45:51;;;;;;;1999.90;999.90;;;;;;;2.88;88.64;96503.94;5137283;27;20047;-64
2023/11/14 05:48:19;;;;;;;1999.90;999.90;;;;;;;2.98;89.57;96504.69;5137085;27;20043;-62
2023/11/14 05:50:47;;;;;;;1999.90;999.90;;;;;;;3.97;92.92;96508.91;5137059;27;20047;-65
2023/11/14 05:53:16;;;;;;;1999.90;999.90;;;;;;;5.62;87.34;96515.88;5137095;27;20047;-65
2023/11/14 05:55:43;;;;;;;1999.90;999.90;;;;;;;7.43;77.96;96523.25;5137065;27;20079;-65
2023/11/14 05:58:11;;;;;;;1999.90;999.90;;;;;;;9.20;67.63;96537.34;5136971;27;20072;-63
2023/11/14 06:00:38;;;;;;;1999.90;999.90;;;;;;;10.78;60.54;96546.66;5136733;27;20561;-62
2023/11/14 06:03:05;;;;;;;1999.90;999.90;;;;;;;12.29;55.09;96550.97;5135986;27;20055;-65
2023/11/14 06:05:33;;;;;;;1999.90;999.90;;;;;;;13.71;50.67;96551.38;5136863;27;20054;-64
2023/11/14 06:08:00;;;;;;;1999.90;999.90;;;;;;;15.03;47.79;96562.88;5136902;27;20043;-63
2023/11/14 06:10:28;;;;;;;1999.90;999.90;;;;;;;16.19;43.95;96545.75;5136616;27;20077;-63
2023/11/14 06:12:58;;;;;;;1999.90;999.90;;;;;;;17.24;42.01;96563.09;5136689;27;20072;-65
2023/11/14 06:15:25;;;;;;;1999.90;999.90;;;;;;;18.35;39.53;96558.47;5136678;27;20111;-64
2023/11/14 06:17:53;;;;;;;1999.90;999.90;;;;;;;19.31;37.14;96572.06;5136608;27;20043;-65
2023/11/14 06:20:22;;;;;;;1999.90;999.90;;;;;;;19.99;36.21;96562.69;5136549;27;20039;-64
2023/11/14 06:22:50;;;;;;;1999.90;999.90;;;;;;;20.42;35.81;96556.78;5136500;27;20043;-62
2023/11/14 06:25:17;;;;;;;1999.90;999.90;;;;;;;20.88;35.27;96566.50;5136385;27;20084;-65
2023/11/14 06:27:46;;;;;;;1999.90;999.90;;;;;;;21.58;34.75;96568.91;5136323;27;20039;-63
2023/11/14 06:30:13;;;;;;;1999.90;999.90;;;;;;;22.43;32.84;96565.47;5136346;27;20043;-65
2023/11/14 06:32:41;;;;;;;1999.90;999.90;;;;;;;23.25;30.84;96570.84;5136230;27;20504;-64
2023/11/14 06:35:08;;;;;;;1999.90;999.90;;;;;;;23.84;29.66;96564.75;5136010;27;20055;-64
2023/11/14 06:37:36;;;;;;;1999.90;999.90;;;;;;;24.16;29.65;96554.72;5136266;27;20043;-65
2023/11/14 06:40:04;;;;;;;1999.90;999.90;;;;;;;24.53;29.08;96550.44;5136266;27;20126;-64
2023/11/14 06:42:31;;;;;;;1999.90;999.90;;;;;;;25.04;29.13;96555.44;5136122;27;20055;-65
2023/11/14 06:45:00;;;;;;;1999.90;999.90;;;;;;;25.51;28.53;96558.91;5136128;27;20054;-63
2023/11/14 06:47:28;;;;;;;1999.90;999.90;;;;;;;26.08;27.75;96558.63;5136126;27;20054;-64
2023/11/14 06:49:55;;;;;;;1999.90;999.90;;;;;;;26.67;27.07;96561.69;5135914;27;20618;-66
2023/11/14 06:52:22;;;;;;;1999.90;999.90;;;;;;;27.00;26.51;96561.88;5135889;27;20047;-65
2023/11/14 06:54:51;;;;;;;1999.90;999.90;;;;;;;27.33;26.03;96567.31;5135901;27;20043;-63
2023/11/14 06:57:18;;;;;;;86.57;81.78;;;;;;;27.84;25.59;96579.84;5135889;27;20092;-65
2023/11/14 06:59:46;;;;;;;98.05;92.68;;;;;;;28.25;24.56;96583.53;5135664;27;20100;-63
2023/11/14 07:02:15;;;;;;;89.10;84.13;;;;;;;28.63;24.54;96578.47;5135762;27;20047;-65
2023/11/14 07:04:42;;;;;;;59.72;56.47;;;;;;;28.81;24.32;96579.25;5135676;27;20077;-64
2023/11/14 07:07:09;;;;;;;61.00;57.60;;;;;;;28.54;24.26;96575.97;5135715;27;20039;-64
2023/11/14 07:09:37;;;;;;;56.33;52.97;;;;;;;28.22;25.48;96578.50;5135820;27;20043;-65
2023/11/14 07:12:05;;;;;;;52.88;49.35;;;;;;;27.73;25.01;96567.63;5135558;27;20047;-65
2023/11/14 07:14:33;;;;;;;63.38;59.83;;;;;;;28.05;25.67;96578.50;5134387;27;20086;-63
2023/11/14 07:17:00;;;;;;;44.00;41.50;;;;;;;28.55;25.22;96580.34;5135563;27;20489;-62
2023/11/14 07:19:29;;;;;;;40.67;38.42;;;;;;;29.03;24.58;96566.94;5135343;27;20050;-64
2023/11/14 07:21:57;;;;;;;48.67;45.83;;;;;;;29.24;24.75;96568.16;5135288;27;20055;-63
2023/11/14 07:24:25;;;;;;;41.55;39.05;;;;;;;29.11;24.11;96560.69;5135361;27;20039;-63
2023/11/14 07:26:52;;;;;;;34.72;32.58;;;;;;;29.28;23.90;96557.91;5135360;27;20039;-63
2023/11/14 07:29:19;;;;;;;36.50;34.47;;;;;;;29.19;24.17;96557.09;5135100;27;20086;-65
2023/11/14 07:31:47;;;;;;;39.90;37.70;;;;;;;29.32;23.42;96545.75;5135110;27;20078;-63
2023/11/14 07:34:14;;;;;;;38.05;35.85;;;;;;;29.62;23.01;96545.94;5134729;27;20475;-63
2023/11/14 07:36:42;;;;;;;37.63;35.42;;;;;;;29.52;22.98;96535.34;5135186;27;20071;-64
2023/11/14 07:39:10;;;;;;;36.85;34.75;;;;;;;29.00;23.56;96537.66;5135079;27;20142;-63
2023/11/14 07:41:37;;;;;;;30.63;28.90;;;;;;;29.16;24.32;96533.22;5134864;27;20058;-62
2023/11/14 07:44:05;;;;;;;29.85;28.05;;;;;;;29.51;23.70;96542.59;5134814;27;20054;-63
2023/11/14 07:46:32;;;;;;;29.48;27.77;;;;;;;29.81;23.33;96543.75;5134851;27;20078;-65
2023/11/14 07:48:59;;;;;;;29.52;27.65;;;;;;;29.94;23.95;96549.38;5134811;27;20043;-62
2023/11/14 07:51:27;;;;;;;29.77;27.98;;;;;;;30.10;23.78;96543.00;5134784;27;20055;-65
2023/11/14 07:53:55;;;;;;;27.08;25.58;;;;;;;29.88;23.69;96542.00;5134678;27;20054;-65
2023/11/14 07:56:24;;;;;;;26.83;25.23;;;;;;;29.25;22.70;96548.28;5134631;27;20477;-64
2023/11/14 07:58:51;;;;;;;30.08;28.23;;;;;;;28.49;23.73;96534.31;5134682;27;20451;-64
2023/11/14 08:01:18;;;;;;;33.75;31.75;;;;;;;27.85;24.07;96532.34;5134565;27;20128;-63
2023/11/14 08:03:46;;;;;;;37.97;35.78;;;;;;;27.26;24.83;96528.72;5134648;27;20101;-64
2023/11/14 08:06:13;;;;;;;32.75;30.85;;;;;;;26.68;25.52;96525.81;5134535;27;20039;-65
2023/11/14 08:08:39;;;;;;;33.17;31.02;;;;;;;26.16;26.30;96517.66;5134582;27;20085;-65
2023/11/14 08:11:08;;;;;;;31.10;29.13;;;;;;;25.51;27.20;96519.63;5134359;27;20051;-64
2023/11/14 08:13:35;;;;;;;31.13;29.23;;;;;;;24.76;28.51;96509.94;5134360;27;20126;-62
2023/11/14 08:16:02;;;;;;;34.33;32.13;;;;;;;23.82;30.09;96522.16;5134295;27;20047;-62
2023/11/14 08:18:30;;;;;;;42.83;40.33;;;;;;;23.14;31.23;96525.63;5134345;27;20086;-66
2023/11/14 08:20:57;;;;;;;42.85;39.95;;;;;;;22.42;31.88;96518.47;5134276;27;20050;-64
2023/11/14 08:23:24;;;;;;;45.97;43.13;;;;;;;21.97;33.24;96504.50;5134203;27;20043;-62
2023/11/14 08:25:52;;;;;;;53.83;50.42;;;;;;;21.39;34.25;96511.06;5133945;27;20094;-62
2023/11/14 08:28:20;;;;;;;56.97;53.58;;;;;;;20.64;36.11;96503.72;5134011;27;20043;-62
2023/11/14 08:30:47;;;;;;;70.57;66.47;;;;;;;20.29;36.50;96500.25;5134214;27;20126;-65
2023/11/14 08:33:15;;;;;;;1999.90;999.90;;;;;;;19.87;37.71;96500.78;5133941;27;20054;-64
2023/11/14 08:35:42;;;;;;;1999.90;999.90;;;;;;;19.36;39.04;96489.53;5133971;27;20082;-65
2023/11/14 08:38:10;;;;;;;1999.90;999.90;;;;;;;19.00;39.38;96489.47;5134121;27;20050;-62
2023/11/14 08:40:37;;;;;;;1999.90;999.90;;;;;;;18.72;40.22;96497.59;5134107;27;20081;-65
2023/11/14 08:43:04;;;;;;;1999.90;999.90;;;;;;;18.53;40.16;96493.63;5133999;27;20488;-64
2023/11/14 08:45:35;;;;;;;1999.90;999.90;;;;;;;18.27;40.10;96493.66;5134038;27;20047;-64
2023/11/14 08:48:03;;;;;;;1999.90;999.90;;;;;;;18.18;41.46;96484.56;5134006;28;20047;-65
2023/11/14 08:50:35;;;;;;;1999.90;999.90;;;;;;;18.15;41.44;96478.66;5133952;27;20404;-65
2023/11/14 08:53:02;;;;;;;1999.90;999.90;;;;;;;18.11;41.43;96480.66;5133954;28;20484;-65
2023/11/14 08:55:29;;;;;;;1999.90;999.90;;;;;;;18.04;42.00;96474.06;5133948;27;20447;-65
2023/11/14 08:57:56;;;;;;;1999.90;999.90;;;;;;;18.01;42.31;96475.16;5133813;28;20051;-62
2023/11/14 09:00:23;;;;;;;1999.90;999.90;;;;;;;17.96;41.44;96473.75;5133861;28;20047;-65
2023/11/14 09:02:52;;;;;;;1999.90;999.90;;;;;;;18.00;42.05;96473.44;5133730;28;20047;-66
2023/11/14 09:05:20;;;;;;;1999.90;999.90;;;;;;;18.09;41.55;96471.94;5133771;28;20054;-65
2023/11/14 09:07:48;;;;;;;1999.90;999.90;;;;;;;18.02;42.84;96473.31;5133854;28;20054;-65
2023/11/14 09:10:16;;;;;;;1999.90;999.90;;;;;;;17.99;43.59;96462.94;5133693;28;20073;-64
2023/11/14 09:12:44;;;;;;;1999.90;999.90;;;;;;;18.00;42.79;96452.25;5133778;28;20492;-65
2023/11/14 09:15:13;;;;;;;1999.90;999.90;;;;;;;18.10;42.04;96457.81;5133673;28;20047;-64
2023/11/14 09:17:40;;;;;;;1999.90;999.90;;;;;;;18.15;42.25;96447.72;5133748;28;20095;-66
2023/11/14 09:20:11;;;;;;;1999.90;999.90;;;;;;;18.25;42.04;96450.59;5133664;27;20050;-63
2023/11/14 09:22:39;;;;;;;1999.90;999.90;;;;;;;18.07;41.90;96452.69;5133555;27;20096;-65
2023/11/14 09:25:07;;;;;;;1999.90;999.90;;;;;;;18.05;41.43;96459.88;5133628;28;20088;-63
2023/11/14 09:27:34;;;;;;;1999.90;999.90;;;;;;;18.05;41.75;96458.09;5133562;28;20485;-65
2023/11/14 09:30:02;;;;;;;1999.90;999.90;;;;;;;18.00;42.99;96456.72;5133486;27;20079;-65
2023/11/14 09:32:29;;;;;;;1999.90;999.90;;;;;;;18.02;42.27;96447.72;5133546;28;20043;-64
2023/11/14 09:34:56;;;;;;;1999.90;999.90;;;;;;;18.03;42.74;96451.22;5133369;27;20492;-64
2023/11/14 09:37:25;;;;;;;1999.90;999.90;;;;;;;17.97;42.71;96446.34;5134091;27;20074;-63
2023/11/14 09:39:53;;;;;;;1999.90;999.90;;;;;;;17.78;41.30;96451.13;5137464;27;20051;-66
2023/11/14 09:42:21;;;;;;;1999.90;999.90;;;;;;;17.67;42.88;96456.31;5137247;27;20055;-63
2023/11/14 09:44:48;;;;;;;1999.90;999.90;;;;;;;17.54;41.53;96443.06;5137262;27;20043;-63
2023/11/14 09:47:17;;;;;;;1999.90;999.90;;;;;;;17.56;41.98;96430.59;5137116;27;20066;-63
2023/11/14 09:49:44;;;;;;;1999.90;999.90;;;;;;;17.64;42.64;96406.25;5137223;27;20051;-65
2023/11/14 09:52:12;;;;;;;1999.90;999.90;;;;;;;17.70;42.96;96405.81;5137035;27;20047;-65
2023/11/14 09:54:41;;;;;;;1999.90;999.90;;;;;;;17.70;43.22;96400.53;5137087;27;20089;-66
2023/11/14 09:57:10;;;;;;;1999.90;999.90;;;;;;;17.77;43.30;96391.25;5137024;27;20047;-65
2023/11/14 09:59:42;;;;;;;1999.90;999.90;;;;;;;17.83;42.52;96384.66;5137016;27;20039;-64
2023/11/14 10:02:09;;;;;;;1999.90;999.90;;;;;;;17.76;43.44;96386.06;5136974;27;20051;-64
2023/11/14 10:04:39;;;;;;;1999.90;999.90;;;;;;;17.64;43.21;96370.06;5136868;27;20051;-64
2023/11/14 10:07:08;;;;;;;1999.90;999.90;;;;;;;17.49;42.86;96355.28;5136893;27;20047;-66
2023/11/14 10:09:37;;;;;;;1999.90;999.90;;;;;;;17.53;43.96;96357.63;5136815;27;20507;-66
2023/11/14 10:12:08;;;;;;;1999.90;999.90;;;;;;;17.59;43.82;96350.19;5136708;27;20051;-63
2023/11/14 10:14:45;;;;;;;1999.90;999.90;;;;;;;17.73;44.24;96343.94;5136722;27;20053;-63
2023/11/14 10:17:16;;;;;;;1999.90;999.90;;;;;;;17.75;43.50;96342.88;5136569;27;20144;-63
2023/11/14 10:19:59;;;;;;;;;;;;;;;17.80;42.84;96338.13;5137053;27;20047;-63
2023/11/14 10:22:27;;;;;;;1999.90;999.90;;;;;;;17.78;41.73;96344.44;5136536;27;20277;-64
2023/11/14 10:24:54;;;;;;;1999.90;999.90;;;;;;;17.72;42.89;96348.38;5136517;27;20047;-65
2023/11/14 10:27:35;;;;;;;1999.90;999.90;;;;;;;17.52;43.06;96369.13;5136441;27;20085;-66
2023/11/14 10:30:02;;;;;;;1999.90;999.90;;;;;;;17.46;44.37;96358.13;5136385;27;20043;-65
2023/11/14 10:32:30;;;;;;;1999.90;999.90;;;;;;;17.38;43.55;96358.66;5136470;27;20039;-64
2023/11/14 10:35:15;;;;;;;1999.90;999.90;;;;;;;17.42;43.00;96355.69;5136107;27;20511;-66
2023/11/14 10:37:42;;;;;;;1999.90;999.90;;;;;;;17.41;44.20;96358.44;5136274;27;20051;-64
2023/11/14 10:40:11;;;;;;;1999.90;999.90;;;;;;;17.47;44.62;96363.31;5136275;27;20062;-63
2023/11/14 10:42:39;;;;;;;1999.90;999.90;;;;;;;17.42;43.17;96347.75;5136063;27;20553;-66
2023/11/14 10:45:08;;;;;;;1999.90;999.90;;;;;;;17.53;44.07;96348.81;5136079;27;20437;-63
2023/11/14 10:47:40;;;;;;;1999.90;999.90;;;;;;;17.48;42.99;96341.19;5136059;27;20131;-63
2023/11/14 10:50:24;;;;;;;1999.90;999.90;;;;;;;17.42;43.72;96338.97;5135637;27;20047;-65
2023/11/14 10:52:53;;;;;;;1999.90;999.90;;;;;;;17.37;44.10;96334.00;5135990;27;20054;-65
2023/11/14 10:55:21;;;;;;;1999.90;999.90;;;;;;;17.41;43.87;96332.88;5135933;27;20071;-66
2023/11/14 10:57:51;;;;;;;1999.90;999.90;;;;;;;17.49;43.59;96327.03;5135830;27;20043;-64
2023/11/14 11:00:20;;;;;;;1999.90;999.90;;;;;;;17.47;44.21;96328.94;5135774;27;20050;-65
2023/11/14 11:02:50;;;;;;;1999.90;999.90;;;;;;;17.44;44.77;96329.16;5135682;27;20051;-63
2023/11/14 11:05:19;;;;;;;1999.90;999.90;;;;;;;17.35;45.45;96335.94;5135680;27;20142;-66